sensor_id;sensor_type;location;lat;lon;timestamp;P1;durP1;ratioP1;P2;durP2;ratioP2
3815;SDS011;1923;48.154;11.536;2022-12-07T00:01:18;16.47;;;8.33;;
3815;SDS011;1923;48.154;11.536;2022-12-07T00:03:48;15.23;;;8.37;;
3815;SDS011;1923;48.154;11.536;2022-12-07T00:06:17;14.93;;;8.23;;
3815;SDS011;1923;48.154;11.536;2022-12-07T00:08:46;15.87;;;8.17;;
3815;SDS011;1923;48.154;11.536;2022-12-07T00:11:15;16.27;;;8.20;;
3815;SDS011;1923;48.154;11.536;2022-12-07T00:13:45;13.33;;;8.00;;
3815;SDS011;1923;48.154;11.536;2022-12-07T00:16:16;14.03;;;8.73;;
3815;SDS011;1923;48.154;11.536;2022-12-07T00:18:45;14.37;;;8.00;;
3815;SDS011;1923;48.154;11.536;2022-12-07T00:21:14;14.20;;;8.23;;
3815;SDS011;1923;48.154;11.536;2022-12-07T00:23:45;15.30;;;8.87;;
3815;SDS011;1923;48.154;11.536;2022-12-07T00:26:14;21.77;;;8.60;;
3815;SDS011;1923;48.154;11.536;2022-12-07T11:40:44;11.07;;;5.80;;
3815;SDS011;1923;48.154;11.536;2022-12-07T11:43:18;10.27;;;5.43;;
3815;SDS011;1923;48.154;11.536;2022-12-07T11:45:52;8.90;;;5.13;;
3815;SDS011;1923;48.154;11.536;2022-12-07T11:48:29;11.20;;;6.30;;
3815;SDS011;1923;48.154;11.536;2022-12-07T11:51:01;12.10;;;6.00;;
3815;SDS011;1923;48.154;11.536;2022-12-07T11:53:32;12.20;;;6.20;;
3815;SDS011;1923;48.154;11.536;2022-12-07T11:56:07;10.03;;;5.27;;
3815;SDS011;1923;48.154;11.536;2022-12-07T11:58:48;13.50;;;5.23;;
3815;SDS011;1923;48.154;11.536;2022-12-07T12:01:22;6.13;;;4.50;;
3815;SDS011;1923;48.154;11.536;2022-12-07T12:04:06;7.70;;;5.70;;
3815;SDS011;1923;48.154;11.536;2022-12-07T12:06:44;8.60;;;5.50;;
3815;SDS011;1923;48.154;11.536;2022-12-07T12:09:13;7.53;;;3.90;;
3815;SDS011;1923;48.154;11.536;2022-12-07T12:12:17;17.70;;;5.20;;
3815;SDS011;1923;48.154;11.536;2022-12-07T12:15:23;10.83;;;6.30;;
3815;SDS011;1923;48.154;11.536;2022-12-07T12:18:06;8.75;;;4.68;;
3815;SDS011;1923;48.154;11.536;2022-12-07T12:20:53;6.23;;;4.00;;
3815;SDS011;1923;48.154;11.536;2022-12-07T12:23:27;9.43;;;4.67;;
3815;SDS011;1923;48.154;11.536;2022-12-07T12:26:05;6.00;;;4.10;;
3815;SDS011;1923;48.154;11.536;2022-12-07T12:28:42;8.33;;;4.40;;
3815;SDS011;1923;48.154;11.536;2022-12-07T12:31:29;9.53;;;5.10;;
3815;SDS011;1923;48.154;11.536;2022-12-07T12:34:02;8.97;;;4.87;;
3815;SDS011;1923;48.154;11.536;2022-12-07T12:39:15;10.20;;;4.93;;
3815;SDS011;1923;48.154;11.536;2022-12-07T12:47:56;13.53;;;6.83;;
3815;SDS011;1923;48.154;11.536;2022-12-07T12:50:29;10.37;;;6.10;;
3815;SDS011;1923;48.154;11.536;2022-12-07T12:53:03;9.27;;;5.60;;
3815;SDS011;1923;48.154;11.536;2022-12-07T12:58:48;12.73;;;5.63;;
3815;SDS011;1923;48.154;11.536;2022-12-07T13:04:16;11.73;;;5.53;;
3815;SDS011;1923;48.154;11.536;2022-12-07T13:07:10;11.47;;;6.63;;
3815;SDS011;1923;48.154;11.536;2022-12-07T13:09:42;11.83;;;5.73;;
3815;SDS011;1923;48.154;11.536;2022-12-07T13:12:12;9.87;;;5.27;;
3815;SDS011;1923;48.154;11.536;2022-12-07T13:14:53;9.83;;;4.83;;
3815;SDS011;1923;48.154;11.536;2022-12-07T13:20:44;12.37;;;6.20;;
3815;SDS011;1923;48.154;11.536;2022-12-07T13:23:18;12.13;;;5.32;;
3815;SDS011;1923;48.154;11.536;2022-12-07T13:25:54;11.60;;;6.03;;
3815;SDS011;1923;48.154;11.536;2022-12-07T13:28:32;11.53;;;6.30;;
3815;SDS011;1923;48.154;11.536;2022-12-07T13:34:00;11.70;;;6.20;;
3815;SDS011;1923;48.154;11.536;2022-12-07T13:36:29;11.40;;;6.37;;
3815;SDS011;1923;48.154;11.536;2022-12-07T13:39:10;11.80;;;5.83;;
3815;SDS011;1923;48.154;11.536;2022-12-07T13:41:44;9.10;;;5.43;;
3815;SDS011;1923;48.154;11.536;2022-12-07T13:44:18;11.00;;;5.63;;
3815;SDS011;1923;48.154;11.536;2022-12-07T13:46:51;11.53;;;5.63;;
3815;SDS011;1923;48.154;11.536;2022-12-07T13:49:26;9.30;;;4.67;;
3815;SDS011;1923;48.154;11.536;2022-12-07T13:52:06;10.17;;;5.60;;
3815;SDS011;1923;48.154;11.536;2022-12-07T13:54:43;12.50;;;6.23;;
3815;SDS011;1923;48.154;11.536;2022-12-07T13:57:13;10.60;;;5.63;;
3815;SDS011;1923;48.154;11.536;2022-12-07T13:59:41;10.43;;;5.87;;
3815;SDS011;1923;48.154;11.536;2022-12-07T14:02:16;11.90;;;6.67;;
3815;SDS011;1923;48.154;11.536;2022-12-07T14:04:49;11.77;;;6.17;;
3815;SDS011;1923;48.154;11.536;2022-12-07T14:07:22;9.70;;;5.37;;
3815;SDS011;1923;48.154;11.536;2022-12-07T14:09:55;10.63;;;6.83;;
3815;SDS011;1923;48.154;11.536;2022-12-07T14:12:25;10.97;;;6.10;;
3815;SDS011;1923;48.154;11.536;2022-12-07T14:14:55;10.80;;;5.90;;
3815;SDS011;1923;48.154;11.536;2022-12-07T14:17:24;12.70;;;6.80;;
3815;SDS011;1923;48.154;11.536;2022-12-07T14:19:55;14.43;;;6.77;;
3815;SDS011;1923;48.154;11.536;2022-12-07T14:22:26;12.80;;;6.40;;
3815;SDS011;1923;48.154;11.536;2022-12-07T14:25:00;8.57;;;5.20;;
3815;SDS011;1923;48.154;11.536;2022-12-07T14:27:39;10.00;;;6.37;;
3815;SDS011;1923;48.154;11.536;2022-12-07T14:30:15;12.93;;;6.40;;
3815;SDS011;1923;48.154;11.536;2022-12-07T14:32:44;9.80;;;5.53;;
3815;SDS011;1923;48.154;11.536;2022-12-07T14:35:22;9.60;;;5.03;;
3815;SDS011;1923;48.154;11.536;2022-12-07T14:37:50;7.65;;;4.18;;
3815;SDS011;1923;48.154;11.536;2022-12-07T14:40:20;8.47;;;4.47;;
3815;SDS011;1923;48.154;11.536;2022-12-07T14:42:50;7.83;;;4.77;;
3815;SDS011;1923;48.154;11.536;2022-12-07T14:45:21;8.63;;;4.10;;
3815;SDS011;1923;48.154;11.536;2022-12-07T14:47:50;7.83;;;4.67;;
3815;SDS011;1923;48.154;11.536;2022-12-07T14:50:41;10.97;;;5.20;;
3815;SDS011;1923;48.154;11.536;2022-12-07T14:53:33;9.97;;;4.97;;
3815;SDS011;1923;48.154;11.536;2022-12-07T14:56:04;9.00;;;5.43;;
3815;SDS011;1923;48.154;11.536;2022-12-07T14:58:32;9.07;;;4.90;;
3815;SDS011;1923;48.154;11.536;2022-12-07T15:01:00;5.53;;;4.13;;
3815;SDS011;1923;48.154;11.536;2022-12-07T15:03:28;11.50;;;5.07;;
3815;SDS011;1923;48.154;11.536;2022-12-07T15:05:58;8.77;;;4.47;;
3815;SDS011;1923;48.154;11.536;2022-12-07T15:08:26;9.00;;;5.47;;
3815;SDS011;1923;48.154;11.536;2022-12-07T15:10:54;14.87;;;6.83;;
3815;SDS011;1923;48.154;11.536;2022-12-07T15:13:23;11.63;;;5.50;;
3815;SDS011;1923;48.154;11.536;2022-12-07T15:16:09;7.87;;;4.47;;
3815;SDS011;1923;48.154;11.536;2022-12-07T15:18:38;8.67;;;5.43;;
3815;SDS011;1923;48.154;11.536;2022-12-07T15:21:25;10.73;;;6.07;;
3815;SDS011;1923;48.154;11.536;2022-12-07T15:23:53;11.60;;;6.00;;
3815;SDS011;1923;48.154;11.536;2022-12-07T15:26:21;9.07;;;5.73;;
3815;SDS011;1923;48.154;11.536;2022-12-07T15:28:49;10.83;;;5.80;;
3815;SDS011;1923;48.154;11.536;2022-12-07T15:31:19;10.60;;;6.03;;
3815;SDS011;1923;48.154;11.536;2022-12-07T15:34:07;12.32;;;5.88;;
3815;SDS011;1923;48.154;11.536;2022-12-07T15:36:37;10.40;;;6.17;;
3815;SDS011;1923;48.154;11.536;2022-12-07T15:39:05;9.37;;;6.30;;
3815;SDS011;1923;48.154;11.536;2022-12-07T15:41:41;9.20;;;5.47;;
3815;SDS011;1923;48.154;11.536;2022-12-07T15:44:09;9.83;;;6.70;;
3815;SDS011;1923;48.154;11.536;2022-12-07T15:46:56;13.27;;;6.73;;
3815;SDS011;1923;48.154;11.536;2022-12-07T15:49:24;12.10;;;6.43;;
3815;SDS011;1923;48.154;11.536;2022-12-07T15:51:55;13.00;;;7.20;;
3815;SDS011;1923;48.154;11.536;2022-12-07T15:54:23;11.43;;;6.17;;
3815;SDS011;1923;48.154;11.536;2022-12-07T15:56:53;12.32;;;6.32;;
3815;SDS011;1923;48.154;11.536;2022-12-07T15:59:22;12.90;;;6.90;;
3815;SDS011;1923;48.154;11.536;2022-12-07T16:01:50;13.07;;;6.93;;
3815;SDS011;1923;48.154;11.536;2022-12-07T16:04:18;13.57;;;7.03;;
3815;SDS011;1923;48.154;11.536;2022-12-07T16:06:46;12.35;;;6.30;;
3815;SDS011;1923;48.154;11.536;2022-12-07T16:09:16;14.77;;;7.40;;
3815;SDS011;1923;48.154;11.536;2022-12-07T16:11:44;10.30;;;6.60;;
3815;SDS011;1923;48.154;11.536;2022-12-07T16:14:12;14.13;;;6.47;;
3815;SDS011;1923;48.154;11.536;2022-12-07T16:16:40;14.67;;;7.67;;
3815;SDS011;1923;48.154;11.536;2022-12-07T16:19:09;10.80;;;6.90;;
3815;SDS011;1923;48.154;11.536;2022-12-07T16:21:37;13.23;;;7.27;;
3815;SDS011;1923;48.154;11.536;2022-12-07T16:24:05;12.73;;;7.80;;
3815;SDS011;1923;48.154;11.536;2022-12-07T16:26:36;12.00;;;6.80;;
3815;SDS011;1923;48.154;11.536;2022-12-07T16:29:04;15.57;;;8.10;;
3815;SDS011;1923;48.154;11.536;2022-12-07T16:31:32;12.83;;;7.30;;
3815;SDS011;1923;48.154;11.536;2022-12-07T16:34:00;15.13;;;7.93;;
3815;SDS011;1923;48.154;11.536;2022-12-07T16:36:28;19.87;;;10.47;;
3815;SDS011;1923;48.154;11.536;2022-12-07T16:39:16;18.17;;;9.90;;
3815;SDS011;1923;48.154;11.536;2022-12-07T16:41:46;18.50;;;8.80;;
3815;SDS011;1923;48.154;11.536;2022-12-07T16:44:14;15.50;;;8.03;;
3815;SDS011;1923;48.154;11.536;2022-12-07T16:46:42;13.43;;;6.80;;
3815;SDS011;1923;48.154;11.536;2022-12-07T16:49:11;11.67;;;7.17;;
3815;SDS011;1923;48.154;11.536;2022-12-07T16:51:40;15.83;;;8.10;;
3815;SDS011;1923;48.154;11.536;2022-12-07T16:54:09;14.80;;;7.40;;
3815;SDS011;1923;48.154;11.536;2022-12-07T16:56:38;21.93;;;10.53;;
3815;SDS011;1923;48.154;11.536;2022-12-07T16:59:09;15.00;;;8.13;;
3815;SDS011;1923;48.154;11.536;2022-12-07T17:01:37;13.60;;;7.53;;
3815;SDS011;1923;48.154;11.536;2022-12-07T17:04:05;14.90;;;7.37;;
3815;SDS011;1923;48.154;11.536;2022-12-07T17:06:35;13.83;;;7.87;;
3815;SDS011;1923;48.154;11.536;2022-12-07T17:09:03;15.13;;;8.97;;
3815;SDS011;1923;48.154;11.536;2022-12-07T17:11:35;12.40;;;6.50;;
3815;SDS011;1923;48.154;11.536;2022-12-07T17:14:03;16.97;;;8.30;;
3815;SDS011;1923;48.154;11.536;2022-12-07T17:16:50;12.33;;;6.93;;
3815;SDS011;1923;48.154;11.536;2022-12-07T17:19:18;14.13;;;7.60;;
3815;SDS011;1923;48.154;11.536;2022-12-07T17:21:47;15.63;;;8.90;;
3815;SDS011;1923;48.154;11.536;2022-12-07T17:24:16;17.57;;;7.53;;
3815;SDS011;1923;48.154;11.536;2022-12-07T17:26:44;18.30;;;8.20;;
3815;SDS011;1923;48.154;11.536;2022-12-07T17:29:14;15.10;;;7.20;;
3815;SDS011;1923;48.154;11.536;2022-12-07T17:31:44;12.37;;;7.70;;
3815;SDS011;1923;48.154;11.536;2022-12-07T17:34:18;19.83;;;8.40;;
3815;SDS011;1923;48.154;11.536;2022-12-07T17:36:46;17.93;;;9.23;;
3815;SDS011;1923;48.154;11.536;2022-12-07T17:39:15;13.07;;;7.63;;
3815;SDS011;1923;48.154;11.536;2022-12-07T17:41:44;15.57;;;8.80;;
3815;SDS011;1923;48.154;11.536;2022-12-07T17:44:30;13.80;;;8.57;;
3815;SDS011;1923;48.154;11.536;2022-12-07T17:46:59;15.33;;;9.17;;
3815;SDS011;1923;48.154;11.536;2022-12-07T17:49:30;16.27;;;9.10;;
3815;SDS011;1923;48.154;11.536;2022-12-07T17:51:58;13.60;;;9.37;;
3815;SDS011;1923;48.154;11.536;2022-12-07T17:54:44;19.97;;;8.87;;
3815;SDS011;1923;48.154;11.536;2022-12-07T17:57:12;14.03;;;8.57;;
3815;SDS011;1923;48.154;11.536;2022-12-07T17:59:40;14.73;;;8.53;;
3815;SDS011;1923;48.154;11.536;2022-12-07T18:02:08;15.50;;;8.13;;
3815;SDS011;1923;48.154;11.536;2022-12-07T18:04:38;18.47;;;8.73;;
3815;SDS011;1923;48.154;11.536;2022-12-07T18:07:07;16.20;;;7.30;;
3815;SDS011;1923;48.154;11.536;2022-12-07T18:09:36;16.33;;;8.00;;
3815;SDS011;1923;48.154;11.536;2022-12-07T18:12:04;15.60;;;8.30;;
3815;SDS011;1923;48.154;11.536;2022-12-07T18:14:33;13.37;;;7.93;;
3815;SDS011;1923;48.154;11.536;2022-12-07T18:17:01;17.57;;;9.40;;
3815;SDS011;1923;48.154;11.536;2022-12-07T18:19:30;17.83;;;9.77;;
3815;SDS011;1923;48.154;11.536;2022-12-07T18:21:59;16.90;;;9.23;;
3815;SDS011;1923;48.154;11.536;2022-12-07T18:24:28;18.93;;;8.80;;
3815;SDS011;1923;48.154;11.536;2022-12-07T18:27:02;18.90;;;10.10;;
3815;SDS011;1923;48.154;11.536;2022-12-07T18:29:31;18.30;;;9.13;;
3815;SDS011;1923;48.154;11.536;2022-12-07T18:31:59;16.53;;;8.93;;
3815;SDS011;1923;48.154;11.536;2022-12-07T18:34:27;15.60;;;8.50;;
3815;SDS011;1923;48.154;11.536;2022-12-07T18:36:56;17.90;;;8.57;;
3815;SDS011;1923;48.154;11.536;2022-12-07T18:39:25;14.73;;;8.33;;
3815;SDS011;1923;48.154;11.536;2022-12-07T18:41:59;18.03;;;8.33;;
3815;SDS011;1923;48.154;11.536;2022-12-07T18:44:27;17.27;;;9.50;;
3815;SDS011;1923;48.154;11.536;2022-12-07T18:46:56;15.90;;;8.70;;
3815;SDS011;1923;48.154;11.536;2022-12-07T18:49:25;13.60;;;7.20;;
3815;SDS011;1923;48.154;11.536;2022-12-07T18:51:53;16.50;;;9.63;;
3815;SDS011;1923;48.154;11.536;2022-12-07T18:54:21;15.80;;;7.97;;
3815;SDS011;1923;48.154;11.536;2022-12-07T18:56:50;17.97;;;8.33;;
3815;SDS011;1923;48.154;11.536;2022-12-07T18:59:20;16.47;;;9.03;;
3815;SDS011;1923;48.154;11.536;2022-12-07T19:02:06;13.00;;;8.10;;
3815;SDS011;1923;48.154;11.536;2022-12-07T19:04:36;15.80;;;8.47;;
3815;SDS011;1923;48.154;11.536;2022-12-07T19:07:05;13.63;;;8.43;;
3815;SDS011;1923;48.154;11.536;2022-12-07T19:09:33;21.07;;;9.20;;
3815;SDS011;1923;48.154;11.536;2022-12-07T19:12:02;17.30;;;8.83;;
3815;SDS011;1923;48.154;11.536;2022-12-07T19:14:32;15.13;;;8.67;;
3815;SDS011;1923;48.154;11.536;2022-12-07T19:17:03;15.50;;;8.93;;
3815;SDS011;1923;48.154;11.536;2022-12-07T19:19:33;17.10;;;8.07;;
3815;SDS011;1923;48.154;11.536;2022-12-07T19:22:03;15.10;;;8.60;;
3815;SDS011;1923;48.154;11.536;2022-12-07T19:24:31;18.73;;;8.30;;
3815;SDS011;1923;48.154;11.536;2022-12-07T19:27:00;18.97;;;9.80;;
3815;SDS011;1923;48.154;11.536;2022-12-07T19:29:31;17.30;;;8.83;;
3815;SDS011;1923;48.154;11.536;2022-12-07T19:31:59;21.33;;;9.63;;
3815;SDS011;1923;48.154;11.536;2022-12-07T19:34:29;19.67;;;9.70;;
3815;SDS011;1923;48.154;11.536;2022-12-07T19:36:57;20.53;;;10.10;;
3815;SDS011;1923;48.154;11.536;2022-12-07T19:39:25;14.77;;;8.83;;
3815;SDS011;1923;48.154;11.536;2022-12-07T19:41:55;18.43;;;9.13;;
3815;SDS011;1923;48.154;11.536;2022-12-07T19:44:23;17.33;;;9.30;;
3815;SDS011;1923;48.154;11.536;2022-12-07T19:46:55;19.67;;;9.30;;
3815;SDS011;1923;48.154;11.536;2022-12-07T19:49:31;16.20;;;7.88;;
3815;SDS011;1923;48.154;11.536;2022-12-07T19:52:03;20.27;;;8.63;;
3815;SDS011;1923;48.154;11.536;2022-12-07T19:54:32;18.23;;;8.53;;
3815;SDS011;1923;48.154;11.536;2022-12-07T19:57:02;18.15;;;8.05;;
3815;SDS011;1923;48.154;11.536;2022-12-07T19:59:30;14.90;;;7.97;;
3815;SDS011;1923;48.154;11.536;2022-12-07T20:02:00;16.33;;;9.20;;
3815;SDS011;1923;48.154;11.536;2022-12-07T20:04:29;17.35;;;8.80;;
3815;SDS011;1923;48.154;11.536;2022-12-07T20:07:01;19.37;;;9.87;;
3815;SDS011;1923;48.154;11.536;2022-12-07T20:09:29;20.90;;;10.47;;
3815;SDS011;1923;48.154;11.536;2022-12-07T20:11:57;23.35;;;11.38;;
3815;SDS011;1923;48.154;11.536;2022-12-07T20:14:43;20.45;;;9.77;;
3815;SDS011;1923;48.154;11.536;2022-12-07T20:17:12;20.58;;;10.60;;
3815;SDS011;1923;48.154;11.536;2022-12-07T20:19:40;18.50;;;9.67;;
3815;SDS011;1923;48.154;11.536;2022-12-07T20:22:08;18.33;;;9.60;;
3815;SDS011;1923;48.154;11.536;2022-12-07T20:24:36;22.47;;;9.90;;
3815;SDS011;1923;48.154;11.536;2022-12-07T20:27:04;19.90;;;10.15;;
3815;SDS011;1923;48.154;11.536;2022-12-07T20:29:33;20.83;;;9.55;;
3815;SDS011;1923;48.154;11.536;2022-12-07T20:32:02;23.60;;;9.77;;
3815;SDS011;1923;48.154;11.536;2022-12-07T20:34:31;21.03;;;10.90;;
3815;SDS011;1923;48.154;11.536;2022-12-07T20:36:59;20.55;;;10.63;;
3815;SDS011;1923;48.154;11.536;2022-12-07T20:39:27;16.47;;;9.60;;
3815;SDS011;1923;48.154;11.536;2022-12-07T20:41:56;17.47;;;9.40;;
3815;SDS011;1923;48.154;11.536;2022-12-07T20:44:41;19.03;;;9.70;;
3815;SDS011;1923;48.154;11.536;2022-12-07T20:47:09;22.17;;;10.17;;
3815;SDS011;1923;48.154;11.536;2022-12-07T20:49:38;17.23;;;8.70;;
3815;SDS011;1923;48.154;11.536;2022-12-07T20:52:06;19.05;;;8.98;;
3815;SDS011;1923;48.154;11.536;2022-12-07T20:54:34;16.53;;;9.23;;
3815;SDS011;1923;48.154;11.536;2022-12-07T20:57:02;22.17;;;11.20;;
3815;SDS011;1923;48.154;11.536;2022-12-07T20:59:30;17.13;;;8.95;;
3815;SDS011;1923;48.154;11.536;2022-12-07T21:02:07;16.17;;;8.00;;
3815;SDS011;1923;48.154;11.536;2022-12-07T21:04:39;17.40;;;8.53;;
3815;SDS011;1923;48.154;11.536;2022-12-07T21:07:07;20.00;;;10.43;;
3815;SDS011;1923;48.154;11.536;2022-12-07T21:09:35;16.53;;;9.50;;
3815;SDS011;1923;48.154;11.536;2022-12-07T21:12:03;18.85;;;10.25;;
3815;SDS011;1923;48.154;11.536;2022-12-07T21:14:37;16.55;;;9.75;;
3815;SDS011;1923;48.154;11.536;2022-12-07T21:17:06;19.00;;;9.63;;
3815;SDS011;1923;48.154;11.536;2022-12-07T21:19:34;18.55;;;9.27;;
3815;SDS011;1923;48.154;11.536;2022-12-07T21:22:04;19.03;;;9.70;;
3815;SDS011;1923;48.154;11.536;2022-12-07T21:24:32;19.90;;;9.95;;
3815;SDS011;1923;48.154;11.536;2022-12-07T21:27:01;19.73;;;10.20;;
3815;SDS011;1923;48.154;11.536;2022-12-07T21:29:29;19.10;;;10.17;;
3815;SDS011;1923;48.154;11.536;2022-12-07T21:32:09;17.10;;;9.60;;
3815;SDS011;1923;48.154;11.536;2022-12-07T21:34:38;20.20;;;9.67;;
3815;SDS011;1923;48.154;11.536;2022-12-07T21:37:07;18.00;;;8.80;;
3815;SDS011;1923;48.154;11.536;2022-12-07T21:39:35;18.63;;;8.90;;
3815;SDS011;1923;48.154;11.536;2022-12-07T21:42:03;15.65;;;7.82;;
3815;SDS011;1923;48.154;11.536;2022-12-07T21:44:31;19.00;;;9.03;;
3815;SDS011;1923;48.154;11.536;2022-12-07T21:46:59;16.60;;;7.33;;
3815;SDS011;1923;48.154;11.536;2022-12-07T21:49:28;15.20;;;7.77;;
3815;SDS011;1923;48.154;11.536;2022-12-07T21:51:56;16.77;;;9.10;;
3815;SDS011;1923;48.154;11.536;2022-12-07T21:54:25;14.67;;;8.47;;
3815;SDS011;1923;48.154;11.536;2022-12-07T21:56:53;16.40;;;8.18;;
3815;SDS011;1923;48.154;11.536;2022-12-07T21:59:22;19.07;;;8.30;;
3815;SDS011;1923;48.154;11.536;2022-12-07T22:01:50;17.40;;;8.30;;
3815;SDS011;1923;48.154;11.536;2022-12-07T22:04:20;18.00;;;8.00;;
3815;SDS011;1923;48.154;11.536;2022-12-07T22:06:49;16.40;;;8.60;;
3815;SDS011;1923;48.154;11.536;2022-12-07T22:09:17;18.27;;;9.00;;
3815;SDS011;1923;48.154;11.536;2022-12-07T22:11:49;17.03;;;10.07;;
3815;SDS011;1923;48.154;11.536;2022-12-07T22:14:18;17.10;;;9.47;;
3815;SDS011;1923;48.154;11.536;2022-12-07T22:17:04;16.57;;;9.20;;
3815;SDS011;1923;48.154;11.536;2022-12-07T22:19:32;18.02;;;8.40;;
3815;SDS011;1923;48.154;11.536;2022-12-07T22:22:00;20.33;;;9.07;;
3815;SDS011;1923;48.154;11.536;2022-12-07T22:24:28;17.40;;;9.07;;
3815;SDS011;1923;48.154;11.536;2022-12-07T22:26:57;16.60;;;8.50;;
3815;SDS011;1923;48.154;11.536;2022-12-07T22:29:25;17.17;;;9.83;;
3815;SDS011;1923;48.154;11.536;2022-12-07T22:31:54;18.63;;;8.80;;
3815;SDS011;1923;48.154;11.536;2022-12-07T22:34:22;20.60;;;9.97;;
3815;SDS011;1923;48.154;11.536;2022-12-07T22:36:50;17.43;;;9.40;;
3815;SDS011;1923;48.154;11.536;2022-12-07T22:39:18;18.23;;;10.00;;
3815;SDS011;1923;48.154;11.536;2022-12-07T22:41:46;18.93;;;9.90;;
3815;SDS011;1923;48.154;11.536;2022-12-07T22:44:20;20.73;;;9.67;;
3815;SDS011;1923;48.154;11.536;2022-12-07T22:46:48;19.07;;;9.83;;
3815;SDS011;1923;48.154;11.536;2022-12-07T22:49:17;18.02;;;8.90;;
3815;SDS011;1923;48.154;11.536;2022-12-07T22:51:52;17.47;;;8.50;;
3815;SDS011;1923;48.154;11.536;2022-12-07T22:54:20;15.80;;;8.43;;
3815;SDS011;1923;48.154;11.536;2022-12-07T22:56:48;17.10;;;8.47;;
3815;SDS011;1923;48.154;11.536;2022-12-07T22:59:16;18.70;;;9.60;;
3815;SDS011;1923;48.154;11.536;2022-12-07T23:01:45;17.20;;;10.03;;
3815;SDS011;1923;48.154;11.536;2022-12-07T23:04:13;17.07;;;8.90;;
3815;SDS011;1923;48.154;11.536;2022-12-07T23:06:41;14.80;;;8.67;;
3815;SDS011;1923;48.154;11.536;2022-12-07T23:09:10;14.53;;;8.37;;
3815;SDS011;1923;48.154;11.536;2022-12-07T23:11:39;16.97;;;8.90;;
3815;SDS011;1923;48.154;11.536;2022-12-07T23:14:26;16.80;;;8.90;;
3815;SDS011;1923;48.154;11.536;2022-12-07T23:16:58;18.77;;;9.50;;
3815;SDS011;1923;48.154;11.536;2022-12-07T23:19:26;21.60;;;9.37;;
3815;SDS011;1923;48.154;11.536;2022-12-07T23:21:55;16.00;;;8.93;;
3815;SDS011;1923;48.154;11.536;2022-12-07T23:24:23;16.33;;;8.80;;
3815;SDS011;1923;48.154;11.536;2022-12-07T23:26:52;16.17;;;8.03;;
3815;SDS011;1923;48.154;11.536;2022-12-07T23:29:20;18.23;;;9.30;;
3815;SDS011;1923;48.154;11.536;2022-12-07T23:31:48;21.53;;;9.47;;
3815;SDS011;1923;48.154;11.536;2022-12-07T23:34:18;20.80;;;9.03;;
3815;SDS011;1923;48.154;11.536;2022-12-07T23:36:46;18.00;;;9.00;;
3815;SDS011;1923;48.154;11.536;2022-12-07T23:39:14;17.13;;;8.50;;
3815;SDS011;1923;48.154;11.536;2022-12-07T23:41:42;22.60;;;10.00;;
3815;SDS011;1923;48.154;11.536;2022-12-07T23:44:10;20.73;;;9.10;;
3815;SDS011;1923;48.154;11.536;2022-12-07T23:46:38;21.50;;;10.00;;
3815;SDS011;1923;48.154;11.536;2022-12-07T23:49:06;18.73;;;9.37;;
3815;SDS011;1923;48.154;11.536;2022-12-07T23:51:36;18.87;;;9.90;;
3815;SDS011;1923;48.154;11.536;2022-12-07T23:54:05;17.27;;;9.13;;
3815;SDS011;1923;48.154;11.536;2022-12-07T23:56:33;16.60;;;8.70;;
3815;SDS011;1923;48.154;11.536;2022-12-07T23:59:01;20.20;;;9.77;;
